Clyde, Utah
Current Conditions -  °F | °C
As of 9:50 AM on Thursday 30 Oct 2014 (Local Time) from KPVU Reporting Station
Clear Clear  
Wind Chill: 46°   Ceiling: Unl
Heat Index: 46°   Visibility: 15mi
Dew Point: 25°   Wind: 0mph
Humidity: 43%   Direction: NA
Pressure: 30.31"   Gusts: NA
Location:  40.2724°N, 111.717°W
Report Text: KPVU 301550Z 00000KT 15SM SKC 08/M04 A3031
Loading
Personal Weather Stations






























Interactive Weather Map
Tropical Storm Tracking
New forecast layout! Learn more

10-Day Weather Forecast

Advertisements
Track Severe Weather on mobile